Time,TemperatureF,DewpointF,PressureIn,WindDirection,WindDirectionDegrees,WindSpeedMPH,WindSpeedGustMPH,Humidity,HourlyPrecipIn,Conditions,Clouds,dailyrainin,SoftwareType,DateUTC
2013-04-17 00:00:00,47.0,40.0,30.52,NW,315,1.0,2.0,76,0.00,,,0.00,TxWx,2013-04-17 04:00:00,
2013-04-17 00:01:00,47.0,40.0,30.52,North,0,1.0,1.0,76,0.00,,,0.00,TxWx,2013-04-17 04:01:00,
2013-04-17 00:02:00,47.0,40.0,30.52,North,0,1.0,2.0,76,0.00,,,0.00,TxWx,2013-04-17 04:02:00,
2013-04-17 00:03:00,47.0,40.0,30.52,NNW,337,1.0,2.0,76,0.00,,,0.00,TxWx,2013-04-17 04:03:00,
2013-04-17 00:04:00,47.0,39.0,30.52,North,0,3.0,3.0,75,0.00,,,0.00,TxWx,2013-04-17 04:04:00,
2013-04-17 00:10:00,47.0,39.0,30.52,North,0,2.0,3.0,74,0.00,,,0.00,TxWx,2013-04-17 04:10:00,
2013-04-17 00:15:00,47.0,39.0,30.52,NNE,22,3.0,3.0,73,0.00,,,0.00,TxWx,2013-04-17 04:15:00,
2013-04-17 00:21:00,47.0,39.0,30.52,NNW,337,2.0,3.0,73,0.00,,,0.00,TxWx,2013-04-17 04:21:00,
2013-04-17 00:26:00,47.0,38.0,30.52,NNW,337,5.0,6.0,71,0.00,,,0.00,TxWx,2013-04-17 04:26:00,
2013-04-17 00:32:00,46.0,37.0,30.53,NNW,337,3.0,3.0,70,0.00,,,0.00,TxWx,2013-04-17 04:32:00,
2013-04-17 00:37:00,46.0,37.0,30.53,North,0,1.0,3.0,71,0.00,,,0.00,TxWx,2013-04-17 04:37:00,
2013-04-17 00:43:00,46.0,37.0,30.54,North,0,1.0,2.0,71,0.00,,,0.00,TxWx,2013-04-17 04:43:00,
2013-04-17 00:48:00,46.0,37.0,30.54,North,0,3.0,4.0,70,0.00,,,0.00,TxWx,2013-04-17 04:48:00,
2013-04-17 00:54:00,46.0,36.0,30.54,North,0,3.0,3.0,69,0.00,,,0.00,TxWx,2013-04-17 04:54:00,
2013-04-17 00:59:00,46.0,37.0,30.54,North,0,2.0,3.0,70,0.00,,,0.00,TxWx,2013-04-17 04:59:00,
2013-04-17 01:05:00,45.0,36.0,30.54,North,0,1.0,3.0,71,0.00,,,0.00,TxWx,2013-04-17 05:05:00,
2013-04-17 01:10:00,45.0,36.0,30.54,NNW,337,1.0,2.0,71,0.00,,,0.00,TxWx,2013-04-17 05:10:00,
2013-04-17 01:15:00,45.0,37.0,30.54,NNE,22,1.0,2.0,72,0.00,,,0.00,TxWx,2013-04-17 05:15:00,
2013-04-17 01:20:00,45.0,36.0,30.54,NNW,337,4.0,4.0,72,0.00,,,0.00,TxWx,2013-04-17 05:20:00,
2013-04-17 01:26:00,45.0,37.0,30.54,North,0,1.0,2.0,72,0.00,,,0.00,TxWx,2013-04-17 05:26:00,
2013-04-17 01:32:00,44.0,36.0,30.54,NNW,337,1.0,3.0,72,0.00,,,0.00,TxWx,2013-04-17 05:32:00,
2013-04-17 01:37:00,44.0,36.0,30.54,NNW,337,1.0,1.0,73,0.00,,,0.00,TxWx,2013-04-17 05:37:00,
2013-04-17 01:43:00,44.0,36.0,30.54,NNW,337,0.0,1.0,74,0.00,,,0.00,TxWx,2013-04-17 05:43:00,
2013-04-17 01:48:00,44.0,37.0,30.55,NNW,337,0.0,0.0,77,0.00,,,0.00,TxWx,2013-04-17 05:48:00,
2013-04-17 01:53:00,43.0,36.0,30.54,North,0,0.0,1.0,76,0.00,,,0.00,TxWx,2013-04-17 05:53:00,
2013-04-17 01:59:00,43.0,36.0,30.54,NNW,337,0.0,0.0,78,0.00,,,0.00,TxWx,2013-04-17 05:59:00,
2013-04-17 02:04:00,43.0,37.0,30.54,NNW,337,0.0,0.0,80,0.00,,,0.00,TxWx,2013-04-17 06:04:00,
2013-04-17 02:10:00,42.0,36.0,30.55,ENE,67,1.0,1.0,79,0.00,,,0.00,TxWx,2013-04-17 06:10:00,
2013-04-17 02:15:00,42.0,36.0,30.55,North,0,1.0,1.0,80,0.00,,,0.00,TxWx,2013-04-17 06:15:00,
2013-04-17 02:20:00,42.0,36.0,30.55,North,0,2.0,4.0,79,0.00,,,0.00,TxWx,2013-04-17 06:20:00,
2013-04-17 02:25:00,42.0,36.0,30.55,NNE,22,1.0,2.0,80,0.00,,,0.00,TxWx,2013-04-17 06:25:00,
2013-04-17 02:31:00,42.0,36.0,30.55,NE,45,2.0,3.0,78,0.00,,,0.00,TxWx,2013-04-17 06:31:00,
2013-04-17 02:36:00,42.0,35.0,30.55,NNE,22,1.0,3.0,78,0.00,,,0.00,TxWx,2013-04-17 06:36:00,
2013-04-17 02:41:00,42.0,36.0,30.55,North,0,1.0,1.0,78,0.00,,,0.00,TxWx,2013-04-17 06:41:00,
2013-04-17 02:47:00,42.0,36.0,30.55,North,0,1.0,2.0,78,0.00,,,0.00,TxWx,2013-04-17 06:47:00,
2013-04-17 02:52:00,41.0,34.0,30.55,NNE,22,1.0,2.0,78,0.00,,,0.00,TxWx,2013-04-17 06:52:00,
2013-04-17 02:57:00,41.0,35.0,30.54,ENE,67,1.0,1.0,78,0.00,,,0.00,TxWx,2013-04-17 06:57:00,
2013-04-17 03:02:00,41.0,35.0,30.54,NE,45,0.0,2.0,79,0.00,,,0.00,TxWx,2013-04-17 07:02:00,
2013-04-17 03:07:00,41.0,35.0,30.54,NNE,22,1.0,1.0,79,0.00,,,0.00,TxWx,2013-04-17 07:07:00,
2013-04-17 03:13:00,41.0,35.0,30.54,NE,45,0.0,0.0,79,0.00,,,0.00,TxWx,2013-04-17 07:13:00,
2013-04-17 03:18:00,40.0,34.0,30.54,SW,225,0.0,0.0,81,0.00,,,0.00,TxWx,2013-04-17 07:18:00,
2013-04-17 03:24:00,40.0,34.0,30.54,WNW,292,0.0,0.0,81,0.00,,,0.00,TxWx,2013-04-17 07:24:00,
2013-04-17 03:29:00,40.0,35.0,30.55,WSW,247,0.0,0.0,81,0.00,,,0.00,TxWx,2013-04-17 07:29:00,
2013-04-17 03:35:00,40.0,35.0,30.55,NW,315,0.0,1.0,83,0.00,,,0.00,TxWx,2013-04-17 07:35:00,
2013-04-17 03:40:00,39.0,34.0,30.55,NW,315,0.0,0.0,84,0.00,,,0.00,TxWx,2013-04-17 07:40:00,
2013-04-17 03:45:00,39.0,35.0,30.55,SW,225,0.0,0.0,84,0.00,,,0.00,TxWx,2013-04-17 07:45:00,
2013-04-17 03:51:00,38.0,34.0,30.55,West,270,0.0,0.0,85,0.00,,,0.00,TxWx,2013-04-17 07:51:00,
2013-04-17 03:56:00,39.0,35.0,30.55,NE,45,1.0,2.0,87,0.00,,,0.00,TxWx,2013-04-17 07:56:00,
2013-04-17 04:02:00,39.0,35.0,30.55,NNE,22,1.0,1.0,87,0.00,,,0.00,TxWx,2013-04-17 08:02:00,
2013-04-17 04:08:00,38.0,34.0,30.55,NNW,337,0.0,1.0,86,0.00,,,0.00,TxWx,2013-04-17 08:08:00,
2013-04-17 04:14:00,38.0,34.0,30.56,WNW,292,1.0,1.0,87,0.00,,,0.00,TxWx,2013-04-17 08:14:00,
2013-04-17 04:19:00,38.0,34.0,30.57,West,270,1.0,1.0,87,0.00,,,0.00,TxWx,2013-04-17 08:19:00,
2013-04-17 04:25:00,38.0,34.0,30.57,SW,225,0.0,0.0,87,0.00,,,0.00,TxWx,2013-04-17 08:25:00,
2013-04-17 04:30:00,38.0,34.0,30.57,West,270,0.0,1.0,87,0.00,,,0.00,TxWx,2013-04-17 08:30:00,
2013-04-17 04:36:00,38.0,35.0,30.58,WNW,292,1.0,2.0,88,0.00,,,0.00,TxWx,2013-04-17 08:36:00,
2013-04-17 04:42:00,38.0,35.0,30.57,NW,315,0.0,0.0,88,0.00,,,0.00,TxWx,2013-04-17 08:42:00,
2013-04-17 04:47:00,38.0,36.0,30.57,NW,315,0.0,1.0,92,0.00,,,0.00,TxWx,2013-04-17 08:47:00,
2013-04-17 04:54:00,38.0,35.0,30.58,WSW,247,1.0,2.0,90,0.00,,,0.00,TxWx,2013-04-17 08:54:00,
2013-04-17 04:59:00,37.0,34.0,30.58,West,270,0.0,1.0,90,0.00,,,0.00,TxWx,2013-04-17 08:59:00,
2013-04-17 05:04:00,37.0,34.0,30.58,NW,315,0.0,1.0,91,0.00,,,0.00,TxWx,2013-04-17 09:04:00,
2013-04-17 05:10:00,38.0,36.0,30.58,NW,315,0.0,0.0,92,0.00,,,0.00,TxWx,2013-04-17 09:10:00,
2013-04-17 05:15:00,37.0,35.0,30.59,South,180,0.0,0.0,91,0.00,,,0.00,TxWx,2013-04-17 09:15:00,
2013-04-17 05:20:00,37.0,35.0,30.58,WSW,247,0.0,0.0,92,0.00,,,0.00,TxWx,2013-04-17 09:20:00,
2013-04-17 05:26:00,36.0,34.0,30.58,West,270,0.0,1.0,92,0.00,,,0.00,TxWx,2013-04-17 09:26:00,
2013-04-17 05:31:00,36.0,34.0,30.58,SW,225,0.0,0.0,92,0.00,,,0.00,TxWx,2013-04-17 09:31:00,
2013-04-17 05:37:00,36.0,34.0,30.58,WSW,247,0.0,0.0,93,0.00,,,0.00,TxWx,2013-04-17 09:37:00,
2013-04-17 05:42:00,36.0,34.0,30.58,SSW,202,0.0,0.0,93,0.00,,,0.00,TxWx,2013-04-17 09:42:00,
2013-04-17 05:47:00,36.0,34.0,30.58,SSW,202,0.0,0.0,93,0.00,,,0.00,TxWx,2013-04-17 09:47:00,
2013-04-17 05:52:00,36.0,35.0,30.58,WNW,292,0.0,0.0,95,0.00,,,0.00,TxWx,2013-04-17 09:52:00,
2013-04-17 05:58:00,37.0,36.0,30.59,WNW,292,0.0,0.0,96,0.00,,,0.00,TxWx,2013-04-17 09:58:00,
2013-04-17 06:03:00,37.0,36.0,30.59,West,270,0.0,0.0,95,0.00,,,0.00,TxWx,2013-04-17 10:03:00,
2013-04-17 06:08:00,36.0,35.0,30.59,North,0,0.0,0.0,95,0.00,,,0.00,TxWx,2013-04-17 10:08:00,
2013-04-17 06:14:00,36.0,35.0,30.59,WNW,292,0.0,0.0,95,0.00,,,0.00,TxWx,2013-04-17 10:14:00,
2013-04-17 06:19:00,36.0,35.0,30.59,NNW,337,0.0,0.0,95,0.00,,,0.00,TxWx,2013-04-17 10:19:00,
2013-04-17 06:24:00,36.0,35.0,30.59,NNW,337,0.0,0.0,95,0.00,,,0.00,TxWx,2013-04-17 10:24:00,
2013-04-17 06:30:00,37.0,36.0,30.59,NW,315,0.0,0.0,97,0.00,,,0.00,TxWx,2013-04-17 10:30:00,
2013-04-17 06:35:00,37.0,36.0,30.59,West,270,0.0,0.0,97,0.00,,,0.00,TxWx,2013-04-17 10:35:00,
2013-04-17 06:41:00,37.0,36.0,30.60,NNW,337,1.0,1.0,96,0.00,,,0.00,TxWx,2013-04-17 10:41:00,
2013-04-17 06:46:00,37.0,36.0,30.60,North,0,0.0,1.0,97,0.00,,,0.00,TxWx,2013-04-17 10:46:00,
2013-04-17 06:51:00,37.0,36.0,30.60,NNW,337,0.0,0.0,97,0.00,,,0.00,TxWx,2013-04-17 10:51:00,
2013-04-17 06:57:00,37.0,36.0,30.60,NW,315,0.0,0.0,97,0.00,,,0.00,TxWx,2013-04-17 10:57:00,
2013-04-17 07:02:00,37.0,36.0,30.61,West,270,0.0,1.0,97,0.00,,,0.00,TxWx,2013-04-17 11:02:00,
2013-04-17 07:07:00,37.0,36.0,30.61,WSW,247,1.0,1.0,96,0.00,,,0.00,TxWx,2013-04-17 11:07:00,
2013-04-17 07:13:00,37.0,36.0,30.61,West,270,0.0,1.0,96,0.00,,,0.00,TxWx,2013-04-17 11:13:00,
2013-04-17 07:18:00,38.0,37.0,30.62,West,270,0.0,1.0,95,0.00,,,0.00,TxWx,2013-04-17 11:18:00,
2013-04-17 07:23:00,38.0,37.0,30.62,South,180,0.0,1.0,95,0.00,,,0.00,TxWx,2013-04-17 11:23:00,
2013-04-17 07:29:00,39.0,37.0,30.62,SSW,202,0.0,0.0,94,0.00,,,0.00,TxWx,2013-04-17 11:29:00,
2013-04-17 07:34:00,39.0,37.0,30.62,SE,135,0.0,1.0,92,0.00,,,0.00,TxWx,2013-04-17 11:34:00,
2013-04-17 07:40:00,40.0,37.0,30.62,North,0,3.0,3.0,89,0.00,,,0.00,TxWx,2013-04-17 11:40:00,
2013-04-17 07:45:00,40.0,36.0,30.62,NE,45,1.0,1.0,86,0.00,,,0.00,TxWx,2013-04-17 11:45:00,
2013-04-17 07:51:00,41.0,36.0,30.62,NNE,22,2.0,2.0,82,0.00,,,0.00,TxWx,2013-04-17 11:51:00,
2013-04-17 07:56:00,41.0,35.0,30.62,NNW,337,2.0,2.0,79,0.00,,,0.00,TxWx,2013-04-17 11:56:00,
2013-04-17 08:02:00,41.0,34.0,30.63,NNE,22,3.0,5.0,77,0.00,,,0.00,TxWx,2013-04-17 12:02:00,
2013-04-17 08:07:00,42.0,34.0,30.63,NW,315,3.0,4.0,75,0.00,,,0.00,TxWx,2013-04-17 12:07:00,
2013-04-17 08:13:00,42.0,34.0,30.63,NW,315,3.0,4.0,73,0.00,,,0.00,TxWx,2013-04-17 12:13:00,
2013-04-17 08:18:00,42.0,33.0,30.63,NNW,337,5.0,5.0,71,0.00,,,0.00,TxWx,2013-04-17 12:18:00,
2013-04-17 08:23:00,42.0,33.0,30.63,WNW,292,2.0,5.0,72,0.00,,,0.00,TxWx,2013-04-17 12:23:00,
2013-04-17 08:29:00,43.0,34.0,30.63,NW,315,1.0,3.0,71,0.00,,,0.00,TxWx,2013-04-17 12:29:00,
2013-04-17 08:34:00,43.0,34.0,30.63,NNW,337,1.0,3.0,70,0.00,,,0.00,TxWx,2013-04-17 12:34:00,
2013-04-17 08:39:00,43.0,33.0,30.63,North,0,3.0,6.0,68,0.00,,,0.00,TxWx,2013-04-17 12:39:00,
2013-04-17 08:45:00,43.0,33.0,30.63,North,0,4.0,5.0,69,0.00,,,0.00,TxWx,2013-04-17 12:45:00,
2013-04-17 08:51:00,43.0,34.0,30.63,NNW,337,3.0,5.0,70,0.00,,,0.00,TxWx,2013-04-17 12:51:00,
2013-04-17 08:56:00,43.0,34.0,30.63,North,0,3.0,6.0,70,0.00,,,0.00,TxWx,2013-04-17 12:56:00,
2013-04-17 09:01:00,43.0,33.0,30.64,NNW,337,3.0,4.0,67,0.00,,,0.00,TxWx,2013-04-17 13:01:00,
2013-04-17 09:07:00,43.0,32.0,30.63,NE,45,3.0,3.0,66,0.00,,,0.00,TxWx,2013-04-17 13:07:00,
2013-04-17 09:12:00,44.0,33.0,30.63,North,0,3.0,5.0,66,0.00,,,0.00,TxWx,2013-04-17 13:12:00,
2013-04-17 09:17:00,44.0,33.0,30.63,East,90,4.0,5.0,65,0.00,,,0.00,TxWx,2013-04-17 13:17:00,
2013-04-17 09:23:00,44.0,33.0,30.63,ESE,112,3.0,4.0,65,0.00,,,0.00,TxWx,2013-04-17 13:23:00,
2013-04-17 09:29:00,44.0,33.0,30.63,NNW,337,2.0,3.0,64,0.00,,,0.00,TxWx,2013-04-17 13:29:00,
2013-04-17 09:35:00,45.0,34.0,30.63,North,0,1.0,3.0,64,0.00,,,0.00,TxWx,2013-04-17 13:35:00,
2013-04-17 09:40:00,45.0,33.0,30.63,NNE,22,3.0,5.0,62,0.00,,,0.00,TxWx,2013-04-17 13:40:00,
2013-04-17 09:46:00,45.0,33.0,30.63,NE,45,3.0,6.0,63,0.00,,,0.00,TxWx,2013-04-17 13:46:00,
2013-04-17 09:51:00,45.0,33.0,30.63,ENE,67,2.0,5.0,63,0.00,,,0.00,TxWx,2013-04-17 13:51:00,
2013-04-17 09:56:00,45.0,33.0,30.63,WNW,292,1.0,2.0,64,0.00,,,0.00,TxWx,2013-04-17 13:56:00,
2013-04-17 10:01:00,46.0,34.0,30.63,North,0,5.0,6.0,64,0.00,,,0.00,TxWx,2013-04-17 14:01:00,
2013-04-17 10:07:00,46.0,34.0,30.63,NNE,22,5.0,5.0,62,0.00,,,0.00,TxWx,2013-04-17 14:07:00,
2013-04-17 10:12:00,46.0,34.0,30.62,ENE,67,4.0,6.0,62,0.00,,,0.00,TxWx,2013-04-17 14:12:00,
2013-04-17 10:18:00,46.0,34.0,30.62,WNW,292,1.0,2.0,62,0.00,,,0.00,TxWx,2013-04-17 14:18:00,
2013-04-17 10:23:00,46.0,34.0,30.62,NE,45,3.0,5.0,63,0.00,,,0.00,TxWx,2013-04-17 14:23:00,
2013-04-17 10:28:00,46.0,33.0,30.62,East,90,7.0,7.0,62,0.00,,,0.00,TxWx,2013-04-17 14:28:00,
2013-04-17 10:33:00,46.0,33.0,30.62,East,90,4.0,8.0,60,0.00,,,0.00,TxWx,2013-04-17 14:33:00,
2013-04-17 10:39:00,47.0,34.0,30.62,East,90,4.0,5.0,60,0.00,,,0.00,TxWx,2013-04-17 14:39:00,
2013-04-17 10:45:00,47.0,32.0,30.62,ENE,67,5.0,7.0,57,0.00,,,0.00,TxWx,2013-04-17 14:45:00,
2013-04-17 10:51:00,47.0,33.0,30.62,ENE,67,3.0,6.0,58,0.00,,,0.00,TxWx,2013-04-17 14:51:00,
2013-04-17 10:56:00,48.0,35.0,30.62,North,0,2.0,4.0,61,0.00,,,0.00,TxWx,2013-04-17 14:56:00,
2013-04-17 11:02:00,48.0,34.0,30.62,NNE,22,6.0,8.0,58,0.00,,,0.00,TxWx,2013-04-17 15:02:00,
2013-04-17 11:08:00,48.0,34.0,30.63,SSE,157,3.0,6.0,58,0.00,,,0.00,TxWx,2013-04-17 15:08:00,
2013-04-17 11:13:00,49.0,35.0,30.63,North,0,1.0,4.0,59,0.00,,,0.00,TxWx,2013-04-17 15:13:00,
2013-04-17 11:18:00,49.0,35.0,30.63,ENE,67,5.0,7.0,58,0.00,,,0.00,TxWx,2013-04-17 15:18:00,
2013-04-17 11:23:00,48.0,32.0,30.63,SSE,157,3.0,3.0,55,0.00,,,0.00,TxWx,2013-04-17 15:23:00,
2013-04-17 11:29:00,49.0,34.0,30.64,West,270,1.0,2.0,56,0.00,,,0.00,TxWx,2013-04-17 15:29:00,
2013-04-17 11:34:00,49.0,34.0,30.63,NNE,22,3.0,7.0,56,0.00,,,0.00,TxWx,2013-04-17 15:34:00,
2013-04-17 11:39:00,49.0,33.0,30.63,NNW,337,3.0,5.0,54,0.00,,,0.00,TxWx,2013-04-17 15:39:00,
2013-04-17 11:44:00,49.0,31.0,30.63,NNE,22,3.0,7.0,52,0.00,,,0.00,TxWx,2013-04-17 15:44:00,
2013-04-17 11:50:00,49.0,33.0,30.63,NE,45,4.0,5.0,54,0.00,,,0.00,TxWx,2013-04-17 15:50:00,
2013-04-17 11:55:00,50.0,33.0,30.62,SSW,202,5.0,6.0,53,0.00,,,0.00,TxWx,2013-04-17 15:55:00,
2013-04-17 12:01:00,50.0,34.0,30.62,SE,135,4.0,6.0,54,0.00,,,0.00,TxWx,2013-04-17 16:01:00,
2013-04-17 12:06:00,50.0,33.0,30.62,East,90,3.0,5.0,52,0.00,,,0.00,TxWx,2013-04-17 16:06:00,
2013-04-17 12:12:00,50.0,32.0,30.62,SSW,202,1.0,3.0,51,0.00,,,0.00,TxWx,2013-04-17 16:12:00,
2013-04-17 12:17:00,51.0,33.0,30.62,ENE,67,6.0,6.0,51,0.00,,,0.00,TxWx,2013-04-17 16:17:00,
2013-04-17 12:22:00,51.0,32.0,30.62,NE,45,5.0,6.0,49,0.00,,,0.00,TxWx,2013-04-17 16:22:00,
2013-04-17 12:27:00,51.0,32.0,30.61,NNE,22,5.0,7.0,49,0.00,,,0.00,TxWx,2013-04-17 16:27:00,
2013-04-17 12:33:00,51.0,31.0,30.62,WNW,292,2.0,3.0,48,0.00,,,0.00,TxWx,2013-04-17 16:33:00,
2013-04-17 12:38:00,52.0,34.0,30.61,NNE,22,5.0,8.0,50,0.00,,,0.00,TxWx,2013-04-17 16:38:00,
2013-04-17 12:44:00,51.0,32.0,30.61,ENE,67,5.0,11.0,49,0.00,,,0.00,TxWx,2013-04-17 16:44:00,
2013-04-17 12:50:00,52.0,33.0,30.60,NE,45,6.0,8.0,48,0.00,,,0.00,TxWx,2013-04-17 16:50:00,
2013-04-17 12:55:00,51.0,32.0,30.60,SE,135,5.0,5.0,49,0.00,,,0.00,TxWx,2013-04-17 16:55:00,
2013-04-17 13:00:00,53.0,34.0,30.59,ENE,67,3.0,5.0,49,0.00,,,0.00,TxWx,2013-04-17 17:00:00,
2013-04-17 13:05:00,53.0,34.0,30.60,East,90,8.0,8.0,49,0.00,,,0.00,TxWx,2013-04-17 17:05:00,
2013-04-17 13:11:00,53.0,35.0,30.60,NE,45,3.0,3.0,50,0.00,,,0.00,TxWx,2013-04-17 17:11:00,
2013-04-17 13:17:00,52.0,33.0,30.60,NE,45,5.0,8.0,48,0.00,,,0.00,TxWx,2013-04-17 17:17:00,
2013-04-17 13:22:00,52.0,34.0,30.59,ENE,67,4.0,7.0,50,0.00,,,0.00,TxWx,2013-04-17 17:22:00,
2013-04-17 13:27:00,53.0,34.0,30.60,SW,225,2.0,5.0,48,0.00,,,0.00,TxWx,2013-04-17 17:27:00,
2013-04-17 13:33:00,53.0,34.0,30.59,East,90,7.0,10.0,49,0.00,,,0.00,TxWx,2013-04-17 17:33:00,
2013-04-17 13:38:00,53.0,35.0,30.59,ENE,67,6.0,8.0,50,0.00,,,0.00,TxWx,2013-04-17 17:38:00,
2013-04-17 13:44:00,54.0,35.0,30.59,ESE,112,5.0,7.0,50,0.00,,,0.00,TxWx,2013-04-17 17:44:00,
2013-04-17 13:50:00,53.0,34.0,30.59,East,90,2.0,5.0,48,0.00,,,0.00,TxWx,2013-04-17 17:50:00,
2013-04-17 13:55:00,53.0,33.0,30.60,NW,315,2.0,5.0,47,0.00,,,0.00,TxWx,2013-04-17 17:55:00,
2013-04-17 14:00:00,54.0,34.0,30.60,East,90,6.0,8.0,47,0.00,,,0.00,TxWx,2013-04-17 18:00:00,
2013-04-17 14:06:00,54.0,33.0,30.60,East,90,8.0,10.0,46,0.00,,,0.00,TxWx,2013-04-17 18:06:00,
2013-04-17 14:11:00,55.0,35.0,30.60,NE,45,8.0,9.0,48,0.00,,,0.00,TxWx,2013-04-17 18:11:00,
2013-04-17 14:16:00,54.0,34.0,30.60,NNE,22,5.0,6.0,48,0.00,,,0.00,TxWx,2013-04-17 18:16:00,
2013-04-17 14:21:00,55.0,36.0,30.59,NNE,22,3.0,5.0,49,0.00,,,0.00,TxWx,2013-04-17 18:21:00,
2013-04-17 14:27:00,55.0,36.0,30.59,ENE,67,3.0,3.0,48,0.00,,,0.00,TxWx,2013-04-17 18:27:00,
2013-04-17 14:32:00,54.0,35.0,30.58,NE,45,6.0,9.0,48,0.00,,,0.00,TxWx,2013-04-17 18:32:00,
2013-04-17 14:38:00,54.0,34.0,30.58,NW,315,3.0,8.0,47,0.00,,,0.00,TxWx,2013-04-17 18:38:00,
2013-04-17 14:44:00,54.0,33.0,30.58,North,0,6.0,10.0,46,0.00,,,0.00,TxWx,2013-04-17 18:44:00,
2013-04-17 14:50:00,54.0,33.0,30.58,NE,45,3.0,8.0,46,0.00,,,0.00,TxWx,2013-04-17 18:50:00,
2013-04-17 14:55:00,55.0,34.0,30.58,NNE,22,8.0,11.0,46,0.00,,,0.00,TxWx,2013-04-17 18:55:00,
2013-04-17 15:01:00,55.0,34.0,30.58,East,90,3.0,6.0,46,0.00,,,0.00,TxWx,2013-04-17 19:01:00,
2013-04-17 15:06:00,55.0,34.0,30.58,NE,45,7.0,11.0,45,0.00,,,0.00,TxWx,2013-04-17 19:06:00,
2013-04-17 15:12:00,55.0,35.0,30.58,NNE,22,7.0,13.0,46,0.00,,,0.00,TxWx,2013-04-17 19:12:00,
2013-04-17 15:17:00,55.0,33.0,30.58,NE,45,8.0,11.0,44,0.00,,,0.00,TxWx,2013-04-17 19:17:00,
2013-04-17 15:23:00,55.0,34.0,30.58,NE,45,5.0,10.0,46,0.00,,,0.00,TxWx,2013-04-17 19:23:00,
2013-04-17 15:29:00,56.0,35.0,30.59,East,90,8.0,9.0,46,0.00,,,0.00,TxWx,2013-04-17 19:29:00,
2013-04-17 15:34:00,55.0,35.0,30.58,North,0,3.0,7.0,46,0.00,,,0.00,TxWx,2013-04-17 19:34:00,
2013-04-17 15:40:00,55.0,35.0,30.58,ENE,67,8.0,12.0,46,0.00,,,0.00,TxWx,2013-04-17 19:40:00,
2013-04-17 15:45:00,56.0,36.0,30.57,NNE,22,6.0,9.0,48,0.00,,,0.00,TxWx,2013-04-17 19:45:00,
2013-04-17 15:51:00,55.0,34.0,30.57,NE,45,6.0,12.0,46,0.00,,,0.00,TxWx,2013-04-17 19:51:00,
2013-04-17 15:57:00,55.0,34.0,30.57,East,90,7.0,10.0,46,0.00,,,0.00,TxWx,2013-04-17 19:57:00,
2013-04-17 16:02:00,56.0,35.0,30.57,East,90,6.0,8.0,46,0.00,,,0.00,TxWx,2013-04-17 20:02:00,
2013-04-17 16:07:00,56.0,36.0,30.57,ENE,67,4.0,9.0,47,0.00,,,0.00,TxWx,2013-04-17 20:07:00,
2013-04-17 16:12:00,56.0,35.0,30.57,East,90,8.0,10.0,46,0.00,,,0.00,TxWx,2013-04-17 20:12:00,
2013-04-17 16:18:00,56.0,36.0,30.57,ENE,67,6.0,11.0,48,0.00,,,0.00,TxWx,2013-04-17 20:18:00,
2013-04-17 16:23:00,56.0,35.0,30.57,ENE,67,3.0,11.0,46,0.00,,,0.00,TxWx,2013-04-17 20:23:00,
2013-04-17 16:29:00,56.0,35.0,30.57,ESE,112,8.0,8.0,45,0.00,,,0.00,TxWx,2013-04-17 20:29:00,
2013-04-17 16:34:00,56.0,35.0,30.57,ENE,67,10.0,10.0,45,0.00,,,0.00,TxWx,2013-04-17 20:34:00,
2013-04-17 16:40:00,56.0,34.0,30.56,NE,45,3.0,7.0,44,0.00,,,0.00,TxWx,2013-04-17 20:40:00,
2013-04-17 16:45:00,56.0,34.0,30.56,East,90,10.0,11.0,44,0.00,,,0.00,TxWx,2013-04-17 20:45:00,
2013-04-17 16:50:00,56.0,34.0,30.56,NNE,22,6.0,10.0,44,0.00,,,0.00,TxWx,2013-04-17 20:50:00,
2013-04-17 16:56:00,56.0,34.0,30.56,NW,315,5.0,8.0,44,0.00,,,0.00,TxWx,2013-04-17 20:56:00,
2013-04-17 17:02:00,56.0,35.0,30.56,ENE,67,6.0,10.0,45,0.00,,,0.00,TxWx,2013-04-17 21:02:00,
2013-04-17 17:08:00,56.0,34.0,30.56,NNE,22,11.0,12.0,44,0.00,,,0.00,TxWx,2013-04-17 21:08:00,
2013-04-17 17:13:00,57.0,36.0,30.55,ENE,67,5.0,8.0,45,0.00,,,0.00,TxWx,2013-04-17 21:13:00,
2013-04-17 17:18:00,56.0,35.0,30.55,NNE,22,5.0,12.0,45,0.00,,,0.00,TxWx,2013-04-17 21:18:00,
2013-04-17 17:24:00,56.0,35.0,30.55,ESE,112,6.0,10.0,45,0.00,,,0.00,TxWx,2013-04-17 21:24:00,
2013-04-17 17:29:00,56.0,35.0,30.55,ENE,67,6.0,10.0,45,0.00,,,0.00,TxWx,2013-04-17 21:29:00,
2013-04-17 17:35:00,56.0,35.0,30.54,ENE,67,6.0,9.0,45,0.00,,,0.00,TxWx,2013-04-17 21:35:00,
2013-04-17 17:40:00,56.0,35.0,30.54,NNE,22,5.0,9.0,45,0.00,,,0.00,TxWx,2013-04-17 21:40:00,
2013-04-17 17:46:00,55.0,33.0,30.54,East,90,9.0,14.0,44,0.00,,,0.00,TxWx,2013-04-17 21:46:00,
2013-04-17 17:52:00,55.0,33.0,30.54,East,90,7.0,11.0,44,0.00,,,0.00,TxWx,2013-04-17 21:52:00,
2013-04-17 17:57:00,54.0,33.0,30.54,East,90,5.0,9.0,44,0.00,,,0.00,TxWx,2013-04-17 21:57:00,
2013-04-17 18:02:00,54.0,33.0,30.54,East,90,8.0,13.0,45,0.00,,,0.00,TxWx,2013-04-17 22:02:00,
2013-04-17 18:08:00,54.0,33.0,30.55,ENE,67,8.0,11.0,44,0.00,,,0.00,TxWx,2013-04-17 22:08:00,
2013-04-17 18:13:00,54.0,32.0,30.54,ENE,67,6.0,16.0,44,0.00,,,0.00,TxWx,2013-04-17 22:13:00,
2013-04-17 18:18:00,55.0,33.0,30.54,NNE,22,6.0,7.0,44,0.00,,,0.00,TxWx,2013-04-17 22:18:00,
2013-04-17 18:25:00,55.0,33.0,30.54,NE,45,4.0,7.0,43,0.00,,,0.00,TxWx,2013-04-17 22:25:00,
2013-04-17 18:30:00,54.0,31.0,30.55,East,90,7.0,11.0,43,0.00,,,0.00,TxWx,2013-04-17 22:30:00,
2013-04-17 18:35:00,54.0,31.0,30.55,ENE,67,7.0,9.0,43,0.00,,,0.00,TxWx,2013-04-17 22:35:00,
2013-04-17 18:41:00,54.0,31.0,30.54,East,90,10.0,11.0,43,0.00,,,0.00,TxWx,2013-04-17 22:41:00,
2013-04-17 18:46:00,54.0,32.0,30.55,ENE,67,5.0,11.0,44,0.00,,,0.00,TxWx,2013-04-17 22:46:00,
2013-04-17 18:52:00,53.0,31.0,30.55,East,90,9.0,9.0,44,0.00,,,0.00,TxWx,2013-04-17 22:52:00,
2013-04-17 18:57:00,53.0,31.0,30.55,NE,45,6.0,8.0,45,0.00,,,0.00,TxWx,2013-04-17 22:57:00,
2013-04-17 19:03:00,53.0,31.0,30.55,East,90,8.0,10.0,44,0.00,,,0.00,TxWx,2013-04-17 23:03:00,
2013-04-17 19:08:00,53.0,31.0,30.55,NE,45,8.0,9.0,45,0.00,,,0.00,TxWx,2013-04-17 23:08:00,
2013-04-17 19:13:00,53.0,32.0,30.55,NNE,22,6.0,8.0,45,0.00,,,0.00,TxWx,2013-04-17 23:13:00,
2013-04-17 19:18:00,52.0,30.0,30.55,ENE,67,6.0,9.0,45,0.00,,,0.00,TxWx,2013-04-17 23:18:00,
2013-04-17 19:24:00,52.0,31.0,30.55,ENE,67,6.0,11.0,46,0.00,,,0.00,TxWx,2013-04-17 23:24:00,
2013-04-17 19:29:00,52.0,30.0,30.54,ENE,67,7.0,10.0,45,0.00,,,0.00,TxWx,2013-04-17 23:29:00,
2013-04-17 19:34:00,52.0,30.0,30.54,NE,45,8.0,13.0,45,0.00,,,0.00,TxWx,2013-04-17 23:34:00,
2013-04-17 19:40:00,52.0,31.0,30.54,East,90,5.0,8.0,46,0.00,,,0.00,TxWx,2013-04-17 23:40:00,
2013-04-17 19:45:00,52.0,30.0,30.53,NE,45,6.0,13.0,45,0.00,,,0.00,TxWx,2013-04-17 23:45:00,
2013-04-17 19:50:00,51.0,30.0,30.52,ENE,67,6.0,9.0,46,0.00,,,0.00,TxWx,2013-04-17 23:50:00,
2013-04-17 19:56:00,51.0,30.0,30.52,ENE,67,10.0,11.0,46,0.00,,,0.00,TxWx,2013-04-17 23:56:00,
2013-04-17 20:02:00,51.0,30.0,30.52,East,90,4.0,9.0,47,0.00,,,0.00,TxWx,2013-04-18 00:02:00,
2013-04-17 20:07:00,51.0,31.0,30.51,ENE,67,6.0,11.0,48,0.00,,,0.00,TxWx,2013-04-18 00:07:00,
2013-04-17 20:12:00,51.0,32.0,30.52,NNE,22,6.0,6.0,49,0.00,,,0.00,TxWx,2013-04-18 00:12:00,
2013-04-17 20:18:00,50.0,31.0,30.51,ENE,67,10.0,12.0,49,0.00,,,0.00,TxWx,2013-04-18 00:18:00,
2013-04-17 20:23:00,50.0,31.0,30.51,East,90,6.0,9.0,50,0.00,,,0.00,TxWx,2013-04-18 00:23:00,
2013-04-17 20:28:00,50.0,31.0,30.51,ENE,67,6.0,11.0,50,0.00,,,0.00,TxWx,2013-04-18 00:28:00,
2013-04-17 20:33:00,49.0,30.0,30.52,East,90,10.0,11.0,50,0.00,,,0.00,TxWx,2013-04-18 00:33:00,
2013-04-17 20:39:00,49.0,30.0,30.52,ENE,67,5.0,8.0,50,0.00,,,0.00,TxWx,2013-04-18 00:39:00,
2013-04-17 20:44:00,49.0,30.0,30.51,East,90,6.0,13.0,50,0.00,,,0.00,TxWx,2013-04-18 00:44:00,
2013-04-17 20:50:00,49.0,30.0,30.51,ENE,67,9.0,12.0,50,0.00,,,0.00,TxWx,2013-04-18 00:50:00,
2013-04-17 20:55:00,49.0,30.0,30.51,ENE,67,7.0,11.0,51,0.00,,,0.00,TxWx,2013-04-18 00:55:00,
2013-04-17 21:00:00,49.0,30.0,30.51,East,90,8.0,11.0,51,0.00,,,0.00,TxWx,2013-04-18 01:00:00,
2013-04-17 21:05:00,49.0,31.0,30.51,East,90,5.0,8.0,51,0.00,,,0.00,TxWx,2013-04-18 01:05:00,
2013-04-17 21:11:00,48.0,30.0,30.51,ENE,67,5.0,8.0,52,0.00,,,0.00,TxWx,2013-04-18 01:11:00,
2013-04-17 21:17:00,48.0,30.0,30.51,East,90,3.0,7.0,52,0.00,,,0.00,TxWx,2013-04-18 01:17:00,
2013-04-17 21:22:00,48.0,30.0,30.51,ESE,112,4.0,8.0,52,0.00,,,0.00,TxWx,2013-04-18 01:22:00,
2013-04-17 21:28:00,48.0,30.0,30.50,ENE,67,5.0,10.0,52,0.00,,,0.00,TxWx,2013-04-18 01:28:00,
2013-04-17 21:33:00,48.0,30.0,30.51,ENE,67,7.0,11.0,52,0.00,,,0.00,TxWx,2013-04-18 01:33:00,
2013-04-17 21:39:00,48.0,30.0,30.50,East,90,5.0,8.0,52,0.00,,,0.00,TxWx,2013-04-18 01:39:00,
2013-04-17 21:44:00,48.0,30.0,30.50,ENE,67,6.0,7.0,53,0.00,,,0.00,TxWx,2013-04-18 01:44:00,
2013-04-17 21:49:00,48.0,30.0,30.50,East,90,6.0,7.0,52,0.00,,,0.00,TxWx,2013-04-18 01:49:00,
2013-04-17 21:55:00,48.0,30.0,30.50,ESE,112,6.0,9.0,52,0.00,,,0.00,TxWx,2013-04-18 01:55:00,
2013-04-17 22:00:00,47.0,29.0,30.49,East,90,5.0,8.0,53,0.00,,,0.00,TxWx,2013-04-18 02:00:00,
2013-04-17 22:06:00,47.0,29.0,30.48,ESE,112,6.0,8.0,53,0.00,,,0.00,TxWx,2013-04-18 02:06:00,
2013-04-17 22:11:00,47.0,29.0,30.48,East,90,6.0,11.0,53,0.00,,,0.00,TxWx,2013-04-18 02:11:00,
2013-04-17 22:16:00,47.0,30.0,30.48,East,90,3.0,8.0,53,0.00,,,0.00,TxWx,2013-04-18 02:16:00,
2013-04-17 22:21:00,47.0,30.0,30.48,ESE,112,3.0,8.0,53,0.00,,,0.00,TxWx,2013-04-18 02:21:00,
2013-04-17 22:27:00,47.0,30.0,30.48,ENE,67,5.0,6.0,54,0.00,,,0.00,TxWx,2013-04-18 02:27:00,
2013-04-17 22:32:00,47.0,30.0,30.47,East,90,3.0,8.0,54,0.00,,,0.00,TxWx,2013-04-18 02:32:00,
2013-04-17 22:38:00,47.0,30.0,30.47,East,90,5.0,8.0,54,0.00,,,0.00,TxWx,2013-04-18 02:38:00,
2013-04-17 22:43:00,47.0,30.0,30.47,East,90,5.0,11.0,54,0.00,,,0.00,TxWx,2013-04-18 02:43:00,
2013-04-17 22:48:00,47.0,30.0,30.47,East,90,5.0,9.0,54,0.00,,,0.00,TxWx,2013-04-18 02:48:00,
2013-04-17 22:53:00,47.0,30.0,30.47,East,90,6.0,6.0,54,0.00,,,0.00,TxWx,2013-04-18 02:53:00,
2013-04-17 22:59:00,47.0,30.0,30.48,ENE,67,6.0,6.0,54,0.00,,,0.00,TxWx,2013-04-18 02:59:00,
2013-04-17 23:05:00,47.0,30.0,30.48,East,90,6.0,8.0,54,0.00,,,0.00,TxWx,2013-04-18 03:05:00,
2013-04-17 23:10:00,47.0,30.0,30.48,ESE,112,3.0,6.0,54,0.00,,,0.00,TxWx,2013-04-18 03:10:00,
2013-04-17 23:16:00,47.0,30.0,30.47,East,90,5.0,6.0,54,0.00,,,0.00,TxWx,2013-04-18 03:16:00,
2013-04-17 23:21:00,47.0,30.0,30.47,ENE,67,3.0,6.0,54,0.00,,,0.00,TxWx,2013-04-18 03:21:00,
2013-04-17 23:27:00,47.0,30.0,30.46,ENE,67,7.0,8.0,54,0.00,,,0.00,TxWx,2013-04-18 03:27:00,
2013-04-17 23:32:00,47.0,30.0,30.46,East,90,4.0,8.0,54,0.00,,,0.00,TxWx,2013-04-18 03:32:00,
2013-04-17 23:37:00,47.0,30.0,30.45,ENE,67,6.0,10.0,54,0.00,,,0.00,TxWx,2013-04-18 03:37:00,
2013-04-17 23:42:00,47.0,30.0,30.44,ESE,112,4.0,5.0,55,0.00,,,0.00,TxWx,2013-04-18 03:42:00,
2013-04-17 23:48:00,47.0,30.0,30.44,ENE,67,5.0,8.0,55,0.00,,,0.00,TxWx,2013-04-18 03:48:00,
2013-04-17 23:53:00,47.0,30.0,30.44,ENE,67,4.0,7.0,55,0.00,,,0.00,TxWx,2013-04-18 03:53:00,
2013-04-17 23:59:00,47.0,30.0,30.44,ENE,67,5.0,6.0,55,0.00,,,0.00,TxWx,2013-04-18 03:59:00,